Aviation Digital Data Service (ADDS)

Output produced by METARs form (1544 UTC 23 September 2020)
found at http://aviationweather.gov/metar/data/
 
KGLS 231520Z 29013G22KT 10SM OVC008 24/22 A2983 RMK AO2 T02390217
KGLS 231452Z 27014G23KT 7SM OVC010 24/22 A2982 RMK AO2 SLP097 T02440217 53020
KGLS 231450Z 2315/2412 29014G20KT P6SM OVC010 
     TEMPO 2315/2317 6SM -RA BR OVC008 
     FM231700 29017G24KT P6SM OVC015 
     FM240000 33016KT P6SM OVC015 
     FM240600 33011KT P6SM BKN025 BKN050